sensor_id;sensor_type;location;lat;lon;timestamp;temperature;humidity
22185;DHT22;11258;52.516;13.318;2023-08-24T00:01:42;21.60;99.90
22185;DHT22;11258;52.516;13.318;2023-08-24T00:04:08;21.60;99.90
22185;DHT22;11258;52.516;13.318;2023-08-24T00:06:34;21.50;99.90
22185;DHT22;11258;52.516;13.318;2023-08-24T00:09:00;21.50;99.90
22185;DHT22;11258;52.516;13.318;2023-08-24T00:11:25;21.50;99.90
22185;DHT22;11258;52.516;13.318;2023-08-24T00:13:51;21.50;99.90
22185;DHT22;11258;52.516;13.318;2023-08-24T00:16:18;21.40;99.90
22185;DHT22;11258;52.516;13.318;2023-08-24T00:18:45;21.40;99.90
22185;DHT22;11258;52.516;13.318;2023-08-24T00:21:12;21.40;99.90
22185;DHT22;11258;52.516;13.318;2023-08-24T00:23:38;21.40;99.90
22185;DHT22;11258;52.516;13.318;2023-08-24T00:26:04;21.40;99.90
22185;DHT22;11258;52.516;13.318;2023-08-24T00:28:29;21.40;99.90
22185;DHT22;11258;52.516;13.318;2023-08-24T00:30:55;21.40;99.90
22185;DHT22;11258;52.516;13.318;2023-08-24T00:33:21;21.40;99.90
22185;DHT22;11258;52.516;13.318;2023-08-24T00:35:46;21.40;99.90
22185;DHT22;11258;52.516;13.318;2023-08-24T00:38:12;21.40;99.90
22185;DHT22;11258;52.516;13.318;2023-08-24T00:40:37;21.30;99.90
22185;DHT22;11258;52.516;13.318;2023-08-24T00:43:04;21.30;99.90
22185;DHT22;11258;52.516;13.318;2023-08-24T00:45:30;21.30;99.90
22185;DHT22;11258;52.516;13.318;2023-08-24T00:47:56;21.30;99.90
22185;DHT22;11258;52.516;13.318;2023-08-24T00:50:22;21.30;99.90
22185;DHT22;11258;52.516;13.318;2023-08-24T00:52:49;21.30;99.90
22185;DHT22;11258;52.516;13.318;2023-08-24T00:55:16;21.30;99.90
22185;DHT22;11258;52.516;13.318;2023-08-24T00:57:42;21.30;99.90
22185;DHT22;11258;52.516;13.318;2023-08-24T01:00:08;21.30;99.90
22185;DHT22;11258;52.516;13.318;2023-08-24T01:02:36;21.30;99.90
22185;DHT22;11258;52.516;13.318;2023-08-24T01:05:02;21.30;99.90
22185;DHT22;11258;52.516;13.318;2023-08-24T01:07:30;21.30;99.90
22185;DHT22;11258;52.516;13.318;2023-08-24T01:09:56;21.20;99.90
22185;DHT22;11258;52.516;13.318;2023-08-24T01:17:42;21.30;99.90
22185;DHT22;11258;52.516;13.318;2023-08-24T01:20:09;21.40;99.90
22185;DHT22;11258;52.516;13.318;2023-08-24T01:22:55;21.40;99.90
22185;DHT22;11258;52.516;13.318;2023-08-24T01:25:42;21.30;99.90
22185;DHT22;11258;52.516;13.318;2023-08-24T01:28:09;21.40;99.90
22185;DHT22;11258;52.516;13.318;2023-08-24T01:30:36;21.40;99.90
22185;DHT22;11258;52.516;13.318;2023-08-24T01:33:03;21.40;99.90
22185;DHT22;11258;52.516;13.318;2023-08-24T01:35:30;21.30;99.90
22185;DHT22;11258;52.516;13.318;2023-08-24T01:37:56;21.40;99.90
22185;DHT22;11258;52.516;13.318;2023-08-24T01:40:27;21.40;99.90
22185;DHT22;11258;52.516;13.318;2023-08-24T01:42:59;21.40;99.90
22185;DHT22;11258;52.516;13.318;2023-08-24T01:45:29;21.40;99.90
22185;DHT22;11258;52.516;13.318;2023-08-24T01:47:55;21.40;99.90
22185;DHT22;11258;52.516;13.318;2023-08-24T01:50:22;21.40;99.90
22185;DHT22;11258;52.516;13.318;2023-08-24T01:52:49;21.40;99.90
22185;DHT22;11258;52.516;13.318;2023-08-24T01:55:18;21.50;99.90
22185;DHT22;11258;52.516;13.318;2023-08-24T01:57:44;21.50;99.90
22185;DHT22;11258;52.516;13.318;2023-08-24T02:00:10;21.50;99.90
22185;DHT22;11258;52.516;13.318;2023-08-24T02:02:36;21.50;99.90
22185;DHT22;11258;52.516;13.318;2023-08-24T02:05:02;21.50;99.90
22185;DHT22;11258;52.516;13.318;2023-08-24T02:07:28;21.40;99.90
22185;DHT22;11258;52.516;13.318;2023-08-24T02:09:54;21.40;99.90
22185;DHT22;11258;52.516;13.318;2023-08-24T02:12:19;21.30;99.90
22185;DHT22;11258;52.516;13.318;2023-08-24T02:14:45;21.40;99.90
22185;DHT22;11258;52.516;13.318;2023-08-24T02:17:11;21.40;99.90
22185;DHT22;11258;52.516;13.318;2023-08-24T02:19:36;21.50;99.90
22185;DHT22;11258;52.516;13.318;2023-08-24T02:22:02;21.40;99.90
22185;DHT22;11258;52.516;13.318;2023-08-24T02:24:28;21.40;99.90
22185;DHT22;11258;52.516;13.318;2023-08-24T02:26:53;21.50;99.90
22185;DHT22;11258;52.516;13.318;2023-08-24T02:29:19;21.50;99.90
22185;DHT22;11258;52.516;13.318;2023-08-24T02:31:44;21.50;99.90
22185;DHT22;11258;52.516;13.318;2023-08-24T02:34:15;21.50;99.90
22185;DHT22;11258;52.516;13.318;2023-08-24T02:36:40;21.50;99.90
22185;DHT22;11258;52.516;13.318;2023-08-24T02:39:06;21.50;99.90
22185;DHT22;11258;52.516;13.318;2023-08-24T02:41:33;21.40;99.90
22185;DHT22;11258;52.516;13.318;2023-08-24T02:43:59;21.50;99.90
22185;DHT22;11258;52.516;13.318;2023-08-24T02:46:24;21.40;99.90
22185;DHT22;11258;52.516;13.318;2023-08-24T02:48:50;21.50;99.90
22185;DHT22;11258;52.516;13.318;2023-08-24T02:51:16;21.50;99.90
22185;DHT22;11258;52.516;13.318;2023-08-24T02:53:41;21.40;99.90
22185;DHT22;11258;52.516;13.318;2023-08-24T02:56:07;21.20;99.90
22185;DHT22;11258;52.516;13.318;2023-08-24T02:58:32;21.20;99.90
22185;DHT22;11258;52.516;13.318;2023-08-24T03:00:58;21.20;99.90
22185;DHT22;11258;52.516;13.318;2023-08-24T03:03:24;21.30;99.90
22185;DHT22;11258;52.516;13.318;2023-08-24T03:05:58;21.40;99.90
22185;DHT22;11258;52.516;13.318;2023-08-24T03:08:24;21.30;99.90
22185;DHT22;11258;52.516;13.318;2023-08-24T03:10:50;21.30;99.90
22185;DHT22;11258;52.516;13.318;2023-08-24T03:13:16;21.30;99.90
22185;DHT22;11258;52.516;13.318;2023-08-24T03:15:42;21.30;99.90
22185;DHT22;11258;52.516;13.318;2023-08-24T03:18:10;21.20;99.90
22185;DHT22;11258;52.516;13.318;2023-08-24T03:20:36;21.00;99.90
22185;DHT22;11258;52.516;13.318;2023-08-24T03:23:02;20.90;99.90
22185;DHT22;11258;52.516;13.318;2023-08-24T03:25:28;21.00;99.90
22185;DHT22;11258;52.516;13.318;2023-08-24T03:27:54;21.00;99.90
22185;DHT22;11258;52.516;13.318;2023-08-24T03:30:20;21.10;99.90
22185;DHT22;11258;52.516;13.318;2023-08-24T03:32:48;21.10;99.90
22185;DHT22;11258;52.516;13.318;2023-08-24T03:35:13;20.90;99.90
22185;DHT22;11258;52.516;13.318;2023-08-24T03:37:40;21.00;99.90
22185;DHT22;11258;52.516;13.318;2023-08-24T03:40:06;21.10;99.90
22185;DHT22;11258;52.516;13.318;2023-08-24T03:42:32;21.00;99.90
22185;DHT22;11258;52.516;13.318;2023-08-24T03:44:59;20.90;99.90
22185;DHT22;11258;52.516;13.318;2023-08-24T03:47:25;21.00;99.90
22185;DHT22;11258;52.516;13.318;2023-08-24T03:49:50;20.90;99.90
22185;DHT22;11258;52.516;13.318;2023-08-24T03:52:16;21.00;99.90
22185;DHT22;11258;52.516;13.318;2023-08-24T03:54:42;21.00;99.90
22185;DHT22;11258;52.516;13.318;2023-08-24T03:57:07;20.90;99.90
22185;DHT22;11258;52.516;13.318;2023-08-24T03:59:33;21.00;99.90
22185;DHT22;11258;52.516;13.318;2023-08-24T04:01:59;21.10;99.90
22185;DHT22;11258;52.516;13.318;2023-08-24T04:04:27;21.10;99.90
22185;DHT22;11258;52.516;13.318;2023-08-24T04:06:53;21.20;99.90
22185;DHT22;11258;52.516;13.318;2023-08-24T04:09:19;21.20;99.90
22185;DHT22;11258;52.516;13.318;2023-08-24T04:11:45;21.20;99.90
22185;DHT22;11258;52.516;13.318;2023-08-24T04:14:10;21.10;99.90
22185;DHT22;11258;52.516;13.318;2023-08-24T04:16:36;21.00;99.90
22185;DHT22;11258;52.516;13.318;2023-08-24T04:19:01;20.80;99.90
22185;DHT22;11258;52.516;13.318;2023-08-24T04:21:27;20.90;99.90
22185;DHT22;11258;52.516;13.318;2023-08-24T04:23:53;20.90;99.90
22185;DHT22;11258;52.516;13.318;2023-08-24T04:26:18;21.00;99.90
22185;DHT22;11258;52.516;13.318;2023-08-24T04:28:44;20.90;99.90
22185;DHT22;11258;52.516;13.318;2023-08-24T04:31:10;20.90;99.90
22185;DHT22;11258;52.516;13.318;2023-08-24T04:33:35;20.80;99.90
22185;DHT22;11258;52.516;13.318;2023-08-24T04:36:02;20.70;99.90
22185;DHT22;11258;52.516;13.318;2023-08-24T04:38:28;20.80;99.90
22185;DHT22;11258;52.516;13.318;2023-08-24T04:40:55;21.00;99.90
22185;DHT22;11258;52.516;13.318;2023-08-24T04:43:22;21.20;99.90
22185;DHT22;11258;52.516;13.318;2023-08-24T04:45:49;21.20;99.90
22185;DHT22;11258;52.516;13.318;2023-08-24T04:48:16;21.40;99.90
22185;DHT22;11258;52.516;13.318;2023-08-24T04:50:43;21.40;99.90
22185;DHT22;11258;52.516;13.318;2023-08-24T04:53:09;21.30;99.90
22185;DHT22;11258;52.516;13.318;2023-08-24T04:55:34;21.40;99.90
22185;DHT22;11258;52.516;13.318;2023-08-24T04:58:00;21.20;99.90
22185;DHT22;11258;52.516;13.318;2023-08-24T05:00:26;21.20;99.90
22185;DHT22;11258;52.516;13.318;2023-08-24T05:02:52;21.20;99.90
22185;DHT22;11258;52.516;13.318;2023-08-24T05:05:17;21.30;99.90
22185;DHT22;11258;52.516;13.318;2023-08-24T05:07:43;21.50;99.90
22185;DHT22;11258;52.516;13.318;2023-08-24T05:10:09;21.90;99.90
22185;DHT22;11258;52.516;13.318;2023-08-24T05:12:34;22.10;99.90
22185;DHT22;11258;52.516;13.318;2023-08-24T05:15:04;22.20;99.90
22185;DHT22;11258;52.516;13.318;2023-08-24T05:17:30;22.30;99.90
22185;DHT22;11258;52.516;13.318;2023-08-24T05:19:58;22.30;99.90
22185;DHT22;11258;52.516;13.318;2023-08-24T05:22:23;22.60;99.90
22185;DHT22;11258;52.516;13.318;2023-08-24T05:24:49;22.80;99.90
22185;DHT22;11258;52.516;13.318;2023-08-24T05:27:15;23.00;99.90
22185;DHT22;11258;52.516;13.318;2023-08-24T05:29:41;23.20;99.90
22185;DHT22;11258;52.516;13.318;2023-08-24T05:32:07;24.30;99.90
22185;DHT22;11258;52.516;13.318;2023-08-24T05:34:33;24.60;99.90
22185;DHT22;11258;52.516;13.318;2023-08-24T05:36:58;25.50;99.90
22185;DHT22;11258;52.516;13.318;2023-08-24T05:39:24;25.00;99.90
22185;DHT22;11258;52.516;13.318;2023-08-24T05:41:51;25.10;99.90
22185;DHT22;11258;52.516;13.318;2023-08-24T05:44:17;26.40;99.90
22185;DHT22;11258;52.516;13.318;2023-08-24T05:46:44;26.80;99.90
22185;DHT22;11258;52.516;13.318;2023-08-24T05:49:10;26.70;99.90
22185;DHT22;11258;52.516;13.318;2023-08-24T05:51:36;26.60;99.90
22185;DHT22;11258;52.516;13.318;2023-08-24T05:54:02;28.00;99.90
22185;DHT22;11258;52.516;13.318;2023-08-24T05:56:27;28.50;99.90
22185;DHT22;11258;52.516;13.318;2023-08-24T05:58:54;29.50;99.90
22185;DHT22;11258;52.516;13.318;2023-08-24T06:01:20;29.40;99.90
22185;DHT22;11258;52.516;13.318;2023-08-24T06:03:45;29.60;99.90
22185;DHT22;11258;52.516;13.318;2023-08-24T06:06:11;30.80;99.90
22185;DHT22;11258;52.516;13.318;2023-08-24T06:08:37;32.30;99.90
22185;DHT22;11258;52.516;13.318;2023-08-24T06:11:02;33.30;99.90
22185;DHT22;11258;52.516;13.318;2023-08-24T06:13:28;34.10;99.90
22185;DHT22;11258;52.516;13.318;2023-08-24T06:15:54;34.60;99.90
22185;DHT22;11258;52.516;13.318;2023-08-24T06:18:20;35.40;98.20
22185;DHT22;11258;52.516;13.318;2023-08-24T06:20:46;36.10;94.90
22185;DHT22;11258;52.516;13.318;2023-08-24T06:23:15;36.30;93.20
22185;DHT22;11258;52.516;13.318;2023-08-24T06:25:41;35.80;92.20
22185;DHT22;11258;52.516;13.318;2023-08-24T06:28:07;35.00;92.70
22185;DHT22;11258;52.516;13.318;2023-08-24T06:30:40;35.40;92.10
22185;DHT22;11258;52.516;13.318;2023-08-24T06:33:06;35.50;92.20
22185;DHT22;11258;52.516;13.318;2023-08-24T06:35:35;36.30;90.90
22185;DHT22;11258;52.516;13.318;2023-08-24T06:38:02;36.50;90.30
22185;DHT22;11258;52.516;13.318;2023-08-24T06:40:28;37.10;87.90
22185;DHT22;11258;52.516;13.318;2023-08-24T06:42:54;36.80;86.30
22185;DHT22;11258;52.516;13.318;2023-08-24T06:45:20;37.00;86.00
22185;DHT22;11258;52.516;13.318;2023-08-24T06:47:46;37.60;83.60
22185;DHT22;11258;52.516;13.318;2023-08-24T06:50:11;37.40;82.80
22185;DHT22;11258;52.516;13.318;2023-08-24T06:52:37;37.40;82.80
22185;DHT22;11258;52.516;13.318;2023-08-24T06:55:04;37.50;82.00
22185;DHT22;11258;52.516;13.318;2023-08-24T06:57:30;37.40;81.50
22185;DHT22;11258;52.516;13.318;2023-08-24T06:59:56;37.60;81.60
22185;DHT22;11258;52.516;13.318;2023-08-24T07:02:21;38.10;80.00
22185;DHT22;11258;52.516;13.318;2023-08-24T07:04:48;38.30;78.60
22185;DHT22;11258;52.516;13.318;2023-08-24T07:07:13;38.20;78.30
22185;DHT22;11258;52.516;13.318;2023-08-24T07:09:39;37.70;78.20
22185;DHT22;11258;52.516;13.318;2023-08-24T07:12:05;37.80;78.40
22185;DHT22;11258;52.516;13.318;2023-08-24T07:14:33;37.90;77.80
22185;DHT22;11258;52.516;13.318;2023-08-24T07:16:59;38.30;77.30
22185;DHT22;11258;52.516;13.318;2023-08-24T07:19:24;38.90;76.10
22185;DHT22;11258;52.516;13.318;2023-08-24T07:21:50;39.50;74.40
22185;DHT22;11258;52.516;13.318;2023-08-24T07:24:16;39.60;73.30
22185;DHT22;11258;52.516;13.318;2023-08-24T07:26:44;39.70;72.50
22185;DHT22;11258;52.516;13.318;2023-08-24T07:29:11;39.90;71.60
22185;DHT22;11258;52.516;13.318;2023-08-24T07:31:36;39.60;71.60
22185;DHT22;11258;52.516;13.318;2023-08-24T07:34:02;39.80;71.50
22185;DHT22;11258;52.516;13.318;2023-08-24T07:36:31;38.90;72.00
22185;DHT22;11258;52.516;13.318;2023-08-24T07:38:57;38.70;72.60
22185;DHT22;11258;52.516;13.318;2023-08-24T07:41:23;39.00;73.00
22185;DHT22;11258;52.516;13.318;2023-08-24T07:43:49;39.00;72.10
22185;DHT22;11258;52.516;13.318;2023-08-24T07:46:14;38.50;72.80
22185;DHT22;11258;52.516;13.318;2023-08-24T07:48:40;39.20;72.00
22185;DHT22;11258;52.516;13.318;2023-08-24T07:51:06;39.40;71.10
22185;DHT22;11258;52.516;13.318;2023-08-24T07:53:32;38.90;72.00
22185;DHT22;11258;52.516;13.318;2023-08-24T07:55:59;39.10;71.90
22185;DHT22;11258;52.516;13.318;2023-08-24T07:58:25;38.60;71.80
22185;DHT22;11258;52.516;13.318;2023-08-24T08:00:51;38.60;72.20
22185;DHT22;11258;52.516;13.318;2023-08-24T08:03:20;38.40;72.00
22185;DHT22;11258;52.516;13.318;2023-08-24T08:05:46;38.10;72.80
22185;DHT22;11258;52.516;13.318;2023-08-24T08:08:15;37.80;73.40
22185;DHT22;11258;52.516;13.318;2023-08-24T08:10:42;37.30;74.50
22185;DHT22;11258;52.516;13.318;2023-08-24T08:13:08;36.90;75.60
22185;DHT22;11258;52.516;13.318;2023-08-24T08:15:36;36.30;76.10
22185;DHT22;11258;52.516;13.318;2023-08-24T08:18:03;35.40;77.40
22185;DHT22;11258;52.516;13.318;2023-08-24T08:20:30;34.80;79.10
22185;DHT22;11258;52.516;13.318;2023-08-24T08:22:55;34.90;79.30
22185;DHT22;11258;52.516;13.318;2023-08-24T08:25:21;34.60;79.30
22185;DHT22;11258;52.516;13.318;2023-08-24T08:27:48;34.30;80.30
22185;DHT22;11258;52.516;13.318;2023-08-24T08:30:14;34.10;80.90
22185;DHT22;11258;52.516;13.318;2023-08-24T08:32:40;32.80;83.80
22185;DHT22;11258;52.516;13.318;2023-08-24T08:35:07;31.20;85.50
22185;DHT22;11258;52.516;13.318;2023-08-24T08:37:33;30.60;88.60
22185;DHT22;11258;52.516;13.318;2023-08-24T08:39:59;30.30;90.40
22185;DHT22;11258;52.516;13.318;2023-08-24T08:42:24;29.80;91.00
22185;DHT22;11258;52.516;13.318;2023-08-24T08:44:51;29.40;91.70
22185;DHT22;11258;52.516;13.318;2023-08-24T08:47:20;29.30;91.90
22185;DHT22;11258;52.516;13.318;2023-08-24T08:49:48;29.00;92.00
22185;DHT22;11258;52.516;13.318;2023-08-24T08:52:14;29.00;92.40
22185;DHT22;11258;52.516;13.318;2023-08-24T08:54:40;28.90;92.70
22185;DHT22;11258;52.516;13.318;2023-08-24T08:57:06;28.70;93.40
22185;DHT22;11258;52.516;13.318;2023-08-24T08:59:32;28.80;92.80
22185;DHT22;11258;52.516;13.318;2023-08-24T09:02:01;28.80;93.60
22185;DHT22;11258;52.516;13.318;2023-08-24T09:04:31;28.80;93.80
22185;DHT22;11258;52.516;13.318;2023-08-24T09:06:57;29.10;93.60
22185;DHT22;11258;52.516;13.318;2023-08-24T09:09:22;29.20;93.20
22185;DHT22;11258;52.516;13.318;2023-08-24T09:11:48;30.00;93.20
22185;DHT22;11258;52.516;13.318;2023-08-24T09:14:14;30.70;91.70
22185;DHT22;11258;52.516;13.318;2023-08-24T09:16:41;31.30;91.30
22185;DHT22;11258;52.516;13.318;2023-08-24T09:19:07;31.20;91.10
22185;DHT22;11258;52.516;13.318;2023-08-24T09:21:37;30.90;90.80
22185;DHT22;11258;52.516;13.318;2023-08-24T09:24:03;30.40;91.40
22185;DHT22;11258;52.516;13.318;2023-08-24T09:26:34;30.10;91.90
22185;DHT22;11258;52.516;13.318;2023-08-24T09:29:05;30.10;92.20
22185;DHT22;11258;52.516;13.318;2023-08-24T09:31:37;30.90;91.60
22185;DHT22;11258;52.516;13.318;2023-08-24T09:34:03;31.50;91.20
22185;DHT22;11258;52.516;13.318;2023-08-24T09:36:38;31.90;90.40
22185;DHT22;11258;52.516;13.318;2023-08-24T09:39:05;32.00;90.40
22185;DHT22;11258;52.516;13.318;2023-08-24T09:41:40;32.10;90.50
22185;DHT22;11258;52.516;13.318;2023-08-24T09:44:07;32.30;89.80
22185;DHT22;11258;52.516;13.318;2023-08-24T09:46:38;32.50;89.00
22185;DHT22;11258;52.516;13.318;2023-08-24T09:49:09;32.30;89.50
22185;DHT22;11258;52.516;13.318;2023-08-24T09:51:35;32.40;89.30
22185;DHT22;11258;52.516;13.318;2023-08-24T09:54:05;32.50;90.10
22185;DHT22;11258;52.516;13.318;2023-08-24T09:56:34;31.80;87.20
22185;DHT22;11258;52.516;13.318;2023-08-24T09:59:09;30.80;89.70
22185;DHT22;11258;52.516;13.318;2023-08-24T10:01:36;30.30;91.00
22185;DHT22;11258;52.516;13.318;2023-08-24T10:04:05;29.50;91.70
22185;DHT22;11258;52.516;13.318;2023-08-24T10:06:31;30.50;91.90
22185;DHT22;11258;52.516;13.318;2023-08-24T10:09:02;31.30;90.90
22185;DHT22;11258;52.516;13.318;2023-08-24T10:11:35;31.70;90.20
22185;DHT22;11258;52.516;13.318;2023-08-24T10:14:10;31.90;90.10
22185;DHT22;11258;52.516;13.318;2023-08-24T10:16:37;32.30;90.20
22185;DHT22;11258;52.516;13.318;2023-08-24T10:19:04;32.50;89.50
22185;DHT22;11258;52.516;13.318;2023-08-24T10:21:31;31.60;89.40
22185;DHT22;11258;52.516;13.318;2023-08-24T10:23:57;30.90;90.90
22185;DHT22;11258;52.516;13.318;2023-08-24T10:26:23;31.50;91.00
22185;DHT22;11258;52.516;13.318;2023-08-24T10:28:53;31.70;90.90
22185;DHT22;11258;52.516;13.318;2023-08-24T10:31:19;32.20;90.60
22185;DHT22;11258;52.516;13.318;2023-08-24T10:33:46;32.30;90.20
22185;DHT22;11258;52.516;13.318;2023-08-24T10:36:14;32.40;90.30
22185;DHT22;11258;52.516;13.318;2023-08-24T10:38:41;32.50;90.20
22185;DHT22;11258;52.516;13.318;2023-08-24T10:41:10;32.50;90.50
22185;DHT22;11258;52.516;13.318;2023-08-24T10:43:40;32.50;90.40
22185;DHT22;11258;52.516;13.318;2023-08-24T10:46:14;32.20;90.20
22185;DHT22;11258;52.516;13.318;2023-08-24T10:54:07;32.10;89.30
22185;DHT22;11258;52.516;13.318;2023-08-24T10:56:37;32.00;90.30
22185;DHT22;11258;52.516;13.318;2023-08-24T11:01:42;31.20;90.60
22185;DHT22;11258;52.516;13.318;2023-08-24T11:04:11;31.50;91.20
22185;DHT22;11258;52.516;13.318;2023-08-24T11:06:58;31.50;90.80
22185;DHT22;11258;52.516;13.318;2023-08-24T11:09:25;31.70;91.40
22185;DHT22;11258;52.516;13.318;2023-08-24T11:12:01;31.10;91.10
22185;DHT22;11258;52.516;13.318;2023-08-24T11:14:27;31.40;91.40
22185;DHT22;11258;52.516;13.318;2023-08-24T11:17:18;31.60;91.00
22185;DHT22;11258;52.516;13.318;2023-08-24T11:19:53;31.70;91.40
22185;DHT22;11258;52.516;13.318;2023-08-24T11:22:22;31.70;91.30
22185;DHT22;11258;52.516;13.318;2023-08-24T11:24:48;31.80;91.20
22185;DHT22;11258;52.516;13.318;2023-08-24T11:27:14;31.70;91.30
22185;DHT22;11258;52.516;13.318;2023-08-24T11:29:41;31.50;91.30
22185;DHT22;11258;52.516;13.318;2023-08-24T11:32:07;31.50;91.80
22185;DHT22;11258;52.516;13.318;2023-08-24T11:34:34;31.40;91.40
22185;DHT22;11258;52.516;13.318;2023-08-24T11:37:01;31.10;91.70
22185;DHT22;11258;52.516;13.318;2023-08-24T11:39:27;31.00;92.20
22185;DHT22;11258;52.516;13.318;2023-08-24T11:42:03;31.10;92.30
22185;DHT22;11258;52.516;13.318;2023-08-24T11:44:29;31.00;92.50
22185;DHT22;11258;52.516;13.318;2023-08-24T11:46:58;31.20;92.10
22185;DHT22;11258;52.516;13.318;2023-08-24T11:49:25;31.10;92.40
22185;DHT22;11258;52.516;13.318;2023-08-24T11:51:51;31.30;92.20
22185;DHT22;11258;52.516;13.318;2023-08-24T11:54:20;31.00;91.80
22185;DHT22;11258;52.516;13.318;2023-08-24T11:56:46;30.80;92.00
22185;DHT22;11258;52.516;13.318;2023-08-24T11:59:16;30.90;92.10
22185;DHT22;11258;52.516;13.318;2023-08-24T12:01:42;30.90;92.10
22185;DHT22;11258;52.516;13.318;2023-08-24T12:04:08;31.00;91.90
22185;DHT22;11258;52.516;13.318;2023-08-24T12:06:34;31.00;92.00
22185;DHT22;11258;52.516;13.318;2023-08-24T12:09:00;30.90;92.30
22185;DHT22;11258;52.516;13.318;2023-08-24T12:11:26;30.90;92.20
22185;DHT22;11258;52.516;13.318;2023-08-24T12:13:55;30.90;92.30
22185;DHT22;11258;52.516;13.318;2023-08-24T12:16:22;31.00;92.40
22185;DHT22;11258;52.516;13.318;2023-08-24T12:18:55;31.10;92.40
22185;DHT22;11258;52.516;13.318;2023-08-24T12:21:24;31.20;92.20
22185;DHT22;11258;52.516;13.318;2023-08-24T12:26:27;30.90;92.10
22185;DHT22;11258;52.516;13.318;2023-08-24T12:28:53;30.80;92.40
22185;DHT22;11258;52.516;13.318;2023-08-24T12:31:19;30.80;92.60
22185;DHT22;11258;52.516;13.318;2023-08-24T12:33:45;30.70;92.80
22185;DHT22;11258;52.516;13.318;2023-08-24T12:36:11;30.60;92.90
22185;DHT22;11258;52.516;13.318;2023-08-24T12:38:37;30.10;92.80
22185;DHT22;11258;52.516;13.318;2023-08-24T12:41:03;30.20;92.90
22185;DHT22;11258;52.516;13.318;2023-08-24T12:43:29;30.40;93.20
22185;DHT22;11258;52.516;13.318;2023-08-24T12:45:55;30.40;93.00
22185;DHT22;11258;52.516;13.318;2023-08-24T12:48:20;30.50;93.30
22185;DHT22;11258;52.516;13.318;2023-08-24T12:50:46;30.60;92.60
22185;DHT22;11258;52.516;13.318;2023-08-24T12:53:11;30.60;92.60
22185;DHT22;11258;52.516;13.318;2023-08-24T12:55:39;30.50;92.70
22185;DHT22;11258;52.516;13.318;2023-08-24T12:58:08;30.50;92.80
22185;DHT22;11258;52.516;13.318;2023-08-24T13:00:34;30.40;92.90
22185;DHT22;11258;52.516;13.318;2023-08-24T13:03:00;30.20;92.60
22185;DHT22;11258;52.516;13.318;2023-08-24T13:05:25;30.20;93.00
22185;DHT22;11258;52.516;13.318;2023-08-24T13:07:51;30.10;92.60
22185;DHT22;11258;52.516;13.318;2023-08-24T13:10:17;30.20;92.80
22185;DHT22;11258;52.516;13.318;2023-08-24T13:12:42;30.20;92.70
22185;DHT22;11258;52.516;13.318;2023-08-24T13:15:10;30.10;92.80
22185;DHT22;11258;52.516;13.318;2023-08-24T13:17:36;30.20;93.00
22185;DHT22;11258;52.516;13.318;2023-08-24T13:20:02;30.30;93.00
22185;DHT22;11258;52.516;13.318;2023-08-24T13:22:28;30.10;93.30
22185;DHT22;11258;52.516;13.318;2023-08-24T13:24:54;30.20;93.50
22185;DHT22;11258;52.516;13.318;2023-08-24T13:27:20;30.50;93.70
22185;DHT22;11258;52.516;13.318;2023-08-24T13:29:45;30.10;94.30
22185;DHT22;11258;52.516;13.318;2023-08-24T13:32:11;29.90;94.30
22185;DHT22;11258;52.516;13.318;2023-08-24T13:34:36;29.80;94.80
22185;DHT22;11258;52.516;13.318;2023-08-24T13:37:02;29.30;94.90
22185;DHT22;11258;52.516;13.318;2023-08-24T13:39:29;29.40;95.30
22185;DHT22;11258;52.516;13.318;2023-08-24T13:42:01;29.70;95.30
22185;DHT22;11258;52.516;13.318;2023-08-24T13:44:26;29.60;95.20
22185;DHT22;11258;52.516;13.318;2023-08-24T13:46:52;29.70;95.00
22185;DHT22;11258;52.516;13.318;2023-08-24T13:49:21;29.60;95.20
22185;DHT22;11258;52.516;13.318;2023-08-24T13:51:46;29.60;95.50
22185;DHT22;11258;52.516;13.318;2023-08-24T13:54:17;29.70;95.40
22185;DHT22;11258;52.516;13.318;2023-08-24T13:56:44;29.70;95.30
22185;DHT22;11258;52.516;13.318;2023-08-24T13:59:10;29.80;95.50
22185;DHT22;11258;52.516;13.318;2023-08-24T14:01:36;29.80;95.30
22185;DHT22;11258;52.516;13.318;2023-08-24T14:04:02;29.40;94.80
22185;DHT22;11258;52.516;13.318;2023-08-24T14:06:29;29.30;95.50
22185;DHT22;11258;52.516;13.318;2023-08-24T14:08:56;29.40;95.60
22185;DHT22;11258;52.516;13.318;2023-08-24T14:11:21;29.50;95.40
22185;DHT22;11258;52.516;13.318;2023-08-24T14:13:47;29.40;95.60
22185;DHT22;11258;52.516;13.318;2023-08-24T14:16:13;29.50;95.90
22185;DHT22;11258;52.516;13.318;2023-08-24T14:18:38;29.60;95.40
22185;DHT22;11258;52.516;13.318;2023-08-24T14:21:04;29.50;95.10
22185;DHT22;11258;52.516;13.318;2023-08-24T14:23:29;29.20;95.90
22185;DHT22;11258;52.516;13.318;2023-08-24T14:25:55;29.40;95.80
22185;DHT22;11258;52.516;13.318;2023-08-24T14:28:21;29.50;95.60
22185;DHT22;11258;52.516;13.318;2023-08-24T14:30:49;29.60;95.70
22185;DHT22;11258;52.516;13.318;2023-08-24T14:33:15;29.70;95.30
22185;DHT22;11258;52.516;13.318;2023-08-24T14:35:40;30.00;95.50
22185;DHT22;11258;52.516;13.318;2023-08-24T14:38:06;30.00;94.60
22185;DHT22;11258;52.516;13.318;2023-08-24T14:40:31;29.70;94.40
22185;DHT22;11258;52.516;13.318;2023-08-24T14:42:57;29.70;94.70
22185;DHT22;11258;52.516;13.318;2023-08-24T14:45:23;29.50;94.50
22185;DHT22;11258;52.516;13.318;2023-08-24T14:47:48;29.20;94.40
22185;DHT22;11258;52.516;13.318;2023-08-24T14:50:14;29.30;94.70
22185;DHT22;11258;52.516;13.318;2023-08-24T14:52:40;29.50;94.50
22185;DHT22;11258;52.516;13.318;2023-08-24T14:55:07;29.50;94.50
22185;DHT22;11258;52.516;13.318;2023-08-24T14:57:35;29.70;94.80
22185;DHT22;11258;52.516;13.318;2023-08-24T15:00:01;29.60;94.70
22185;DHT22;11258;52.516;13.318;2023-08-24T15:02:26;29.60;95.00
22185;DHT22;11258;52.516;13.318;2023-08-24T15:04:52;29.70;94.40
22185;DHT22;11258;52.516;13.318;2023-08-24T15:07:18;29.70;94.50
22185;DHT22;11258;52.516;13.318;2023-08-24T15:09:43;29.70;95.00
22185;DHT22;11258;52.516;13.318;2023-08-24T15:12:09;29.60;95.50
22185;DHT22;11258;52.516;13.318;2023-08-24T15:14:34;29.80;95.70
22185;DHT22;11258;52.516;13.318;2023-08-24T15:17:00;29.80;95.60
22185;DHT22;11258;52.516;13.318;2023-08-24T15:19:25;29.90;95.80
22185;DHT22;11258;52.516;13.318;2023-08-24T15:21:51;30.00;96.00
22185;DHT22;11258;52.516;13.318;2023-08-24T15:24:17;30.10;95.90
22185;DHT22;11258;52.516;13.318;2023-08-24T15:26:42;30.10;95.60
22185;DHT22;11258;52.516;13.318;2023-08-24T15:29:11;29.80;95.60